createdAt,value
2023-01-27T00:01:16.835Z,-0.80
2023-01-27T00:03:43.387Z,-0.70
2023-01-27T00:06:11.839Z,-0.70
2023-01-27T00:08:38.463Z,-0.70
2023-01-27T00:11:23.962Z,-0.80
2023-01-27T00:13:50.461Z,-0.80
2023-01-27T00:16:17.330Z,-0.80
2023-01-27T00:18:43.882Z,-0.70
2023-01-27T00:21:28.862Z,-0.60
2023-01-27T00:24:14.268Z,-0.70
2023-01-27T00:26:40.859Z,-0.60
2023-01-27T00:29:07.410Z,-0.70
2023-01-27T00:31:52.834Z,-0.90
2023-01-27T00:34:19.454Z,-0.90
2023-01-27T00:36:46.065Z,-0.80
2023-01-27T00:39:12.688Z,-0.80
2023-01-27T00:41:39.912Z,-0.90
2023-01-27T00:44:06.788Z,-0.90
2023-01-27T00:46:33.518Z,-0.90
2023-01-27T00:49:00.297Z,-1.00
2023-01-27T00:51:26.833Z,-1.00
2023-01-27T00:53:53.378Z,-0.90
2023-01-27T00:56:19.948Z,-0.90
2023-01-27T00:58:46.655Z,-0.90
2023-01-27T01:01:14.483Z,-0.90
2023-01-27T01:03:41.029Z,-0.90
2023-01-27T01:06:08.691Z,-0.90
2023-01-27T01:08:36.190Z,-0.80
2023-01-27T01:11:03.257Z,-0.70
2023-01-27T01:13:29.962Z,-0.80
2023-01-27T01:15:57.258Z,-0.90
2023-01-27T01:18:24.409Z,-0.90
2023-01-27T01:20:50.927Z,-0.80
2023-01-27T01:23:17.547Z,-0.80
2023-01-27T01:25:51.755Z,-0.80
2023-01-27T01:28:18.290Z,-0.70
2023-01-27T01:30:44.843Z,-0.70
2023-01-27T01:33:11.483Z,-0.80
2023-01-27T01:35:38.537Z,-0.80
2023-01-27T01:38:05.120Z,-0.80
2023-01-27T01:40:31.700Z,-0.70
2023-01-27T01:43:02.403Z,-0.80
2023-01-27T01:45:28.942Z,-0.70
2023-01-27T01:47:55.446Z,-0.70
2023-01-27T01:50:22.055Z,-0.80
2023-01-27T01:52:48.589Z,-0.70
2023-01-27T01:55:15.139Z,-0.70
2023-01-27T01:57:44.057Z,-0.70
2023-01-27T02:00:11.208Z,-0.70
2023-01-27T02:02:39.867Z,-0.80
2023-01-27T02:05:08.456Z,-0.70
2023-01-27T02:07:44.267Z,-0.70
2023-01-27T02:10:12.494Z,-0.70
2023-01-27T02:12:39.149Z,-0.70
2023-01-27T02:15:06.307Z,-0.80
2023-01-27T02:17:32.861Z,-0.70
2023-01-27T02:20:07.212Z,-0.80
2023-01-27T02:22:39.442Z,-0.80
2023-01-27T02:25:16.278Z,-0.80
2023-01-27T02:27:42.799Z,-0.80
2023-01-27T02:30:12.509Z,-0.80
2023-01-27T02:32:40.231Z,-0.80
2023-01-27T02:35:08.530Z,-0.80
2023-01-27T02:37:35.708Z,-0.70
2023-01-27T02:40:02.903Z,-0.70
2023-01-27T02:42:29.482Z,-0.70
2023-01-27T02:44:56.002Z,-0.70
2023-01-27T02:47:22.600Z,-0.80
2023-01-27T02:49:49.550Z,-0.80
2023-01-27T02:52:16.074Z,-0.70
2023-01-27T02:54:42.586Z,-0.80
2023-01-27T02:57:09.110Z,-0.70
2023-01-27T02:59:35.597Z,-0.70
2023-01-27T03:02:02.211Z,-0.70
2023-01-27T03:04:28.752Z,-0.70
2023-01-27T03:06:55.310Z,-0.60
2023-01-27T03:09:21.827Z,-0.60
2023-01-27T03:12:07.187Z,-0.60
2023-01-27T03:14:52.347Z,-0.60
2023-01-27T03:17:37.513Z,-0.60
2023-01-27T03:20:04.205Z,-0.60
2023-01-27T03:22:30.759Z,-0.80
2023-01-27T03:24:57.243Z,-1.00
2023-01-27T03:27:23.770Z,-0.90
2023-01-27T03:29:56.475Z,-0.90
2023-01-27T03:32:23.894Z,-1.00
2023-01-27T03:34:50.430Z,-0.80
2023-01-27T03:37:35.635Z,-0.70
2023-01-27T03:40:21.281Z,-0.90
2023-01-27T03:43:06.414Z,-0.80
2023-01-27T03:45:51.778Z,-0.80
2023-01-27T03:48:20.888Z,-0.90
2023-01-27T03:50:52.944Z,-0.90
2023-01-27T03:53:20.062Z,-0.80
2023-01-27T03:55:47.311Z,-0.80
2023-01-27T03:58:19.639Z,-0.80
2023-01-27T04:00:47.657Z,-0.80
2023-01-27T04:03:32.731Z,-0.90
2023-01-27T04:06:20.957Z,-0.80
2023-01-27T04:08:47.507Z,-0.70
2023-01-27T04:11:32.918Z,-0.70
2023-01-27T04:14:03.633Z,-0.70
2023-01-27T04:16:30.179Z,-0.60
2023-01-27T04:18:57.327Z,-0.70
2023-01-27T04:21:25.284Z,-0.90
2023-01-27T04:23:52.516Z,-1.00
2023-01-27T04:26:19.395Z,-1.20
2023-01-27T04:28:46.841Z,-1.20
2023-01-27T04:31:13.502Z,-1.10
2023-01-27T04:33:40.111Z,-1.10
2023-01-27T04:36:06.823Z,-1.10
2023-01-27T04:38:33.550Z,-1.00
2023-01-27T04:41:00.139Z,-1.00
2023-01-27T04:43:26.785Z,-1.00
2023-01-27T04:45:53.648Z,-0.90
2023-01-27T04:48:20.282Z,-1.00
2023-01-27T04:50:46.798Z,-1.10
2023-01-27T04:53:13.388Z,-1.10
2023-01-27T04:55:40.628Z,-1.10
2023-01-27T04:58:07.122Z,-1.10
2023-01-27T05:00:33.645Z,-1.10
2023-01-27T05:03:00.196Z,-1.00
2023-01-27T05:05:26.729Z,-1.10
2023-01-27T05:07:53.213Z,-1.20
2023-01-27T05:10:19.723Z,-1.10
2023-01-27T05:12:46.229Z,-1.00
2023-01-27T05:15:13.171Z,-1.10
2023-01-27T05:17:39.791Z,-1.00
2023-01-27T05:20:06.397Z,-1.00
2023-01-27T05:22:32.941Z,-1.00
2023-01-27T05:24:59.452Z,-1.00
2023-01-27T05:27:26.047Z,-1.00
2023-01-27T05:29:52.723Z,-1.10
2023-01-27T05:32:19.265Z,-1.00
2023-01-27T05:34:45.767Z,-0.90
2023-01-27T05:37:14.037Z,-0.90
2023-01-27T05:39:40.608Z,-0.80
2023-01-27T05:42:07.477Z,-0.80
2023-01-27T05:44:34.166Z,-0.80
2023-01-27T05:47:01.318Z,-0.80
2023-01-27T05:49:27.945Z,-0.90
2023-01-27T05:51:54.444Z,-0.90
2023-01-27T05:54:20.946Z,-1.00
2023-01-27T05:56:47.460Z,-0.90
2023-01-27T05:59:14.067Z,-0.90
2023-01-27T06:05:09.077Z,-0.90
2023-01-27T06:07:35.561Z,-0.90
2023-01-27T06:12:52.750Z,-0.90
2023-01-27T06:15:19.241Z,-0.90
2023-01-27T06:17:45.758Z,-0.90
2023-01-27T06:20:12.368Z,-0.90
2023-01-27T06:22:38.869Z,-1.00
2023-01-27T06:25:05.599Z,-1.00
2023-01-27T06:27:32.080Z,-0.90
2023-01-27T06:29:58.577Z,-0.90
2023-01-27T06:32:25.383Z,-1.00
2023-01-27T06:34:51.868Z,-0.90
2023-01-27T06:37:18.393Z,-1.00
2023-01-27T06:39:44.889Z,-1.10
2023-01-27T06:42:11.416Z,-1.00
2023-01-27T06:44:37.991Z,-1.00
2023-01-27T06:47:04.526Z,-0.90
2023-01-27T06:49:31.146Z,-1.00
2023-01-27T06:51:57.651Z,-1.00
2023-01-27T06:54:24.491Z,-1.00
2023-01-27T06:56:51.069Z,-1.10
2023-01-27T06:59:17.637Z,-1.00
2023-01-27T07:01:44.326Z,-1.00
2023-01-27T07:04:10.848Z,-1.10
2023-01-27T07:06:37.397Z,-0.90
2023-01-27T07:09:03.999Z,-0.90
2023-01-27T07:11:30.488Z,-0.90
2023-01-27T07:13:56.997Z,-0.90
2023-01-27T07:16:23.624Z,-0.90
2023-01-27T07:18:50.191Z,-1.00
2023-01-27T07:21:16.705Z,-1.10
2023-01-27T07:23:44.927Z,-1.10
2023-01-27T07:26:24.355Z,-1.00
2023-01-27T07:28:51.364Z,-0.90
2023-01-27T07:31:18.020Z,-1.00
2023-01-27T07:33:44.800Z,-1.20
2023-01-27T07:36:11.309Z,-1.10
2023-01-27T07:38:38.927Z,-1.10
2023-01-27T07:41:06.123Z,-1.00
2023-01-27T07:43:33.064Z,-0.90
2023-01-27T07:45:59.863Z,-1.00
2023-01-27T07:48:26.507Z,-1.10
2023-01-27T07:50:53.095Z,-1.10
2023-01-27T07:53:19.606Z,-0.90
2023-01-27T07:55:46.169Z,-0.80
2023-01-27T07:58:12.703Z,-0.90
2023-01-27T08:00:39.407Z,-0.80
2023-01-27T08:03:06.171Z,-0.80
2023-01-27T08:05:33.690Z,-0.70
2023-01-27T08:08:03.782Z,-0.70
2023-01-27T08:10:30.620Z,-0.70
2023-01-27T08:12:57.170Z,-0.70
2023-01-27T08:15:23.706Z,-0.70
2023-01-27T08:17:57.593Z,-0.80
2023-01-27T08:20:24.870Z,-0.80
2023-01-27T08:22:51.406Z,-0.80
2023-01-27T08:25:18.270Z,-0.80
2023-01-27T08:27:44.771Z,-0.80
2023-01-27T08:30:12.230Z,-0.80
2023-01-27T08:32:39.115Z,-0.70
2023-01-27T08:35:05.688Z,-0.70
2023-01-27T08:37:32.219Z,-0.70
2023-01-27T08:39:58.752Z,-0.70
2023-01-27T08:42:25.385Z,-0.60
2023-01-27T08:44:51.946Z,-0.60
2023-01-27T08:47:18.506Z,-0.50
2023-01-27T08:49:45.978Z,-0.50
2023-01-27T08:52:12.494Z,-0.40
2023-01-27T08:54:39.022Z,-0.40
2023-01-27T08:57:05.553Z,-0.40
2023-01-27T08:59:32.068Z,-0.30
2023-01-27T09:01:58.613Z,-0.30
2023-01-27T09:04:25.702Z,-0.30
2023-01-27T09:06:54.049Z,-0.20
2023-01-27T09:09:20.543Z,-0.20
2023-01-27T09:11:47.457Z,-0.20
2023-01-27T09:14:14.038Z,-0.10
2023-01-27T09:16:40.713Z,-0.20
2023-01-27T09:19:07.466Z,-0.10
2023-01-27T09:21:34.154Z,-0.10
2023-01-27T09:24:00.737Z,0.00
2023-01-27T09:26:27.339Z,0.00
2023-01-27T09:28:53.951Z,0.10
2023-01-27T09:31:20.588Z,0.10
2023-01-27T09:33:47.147Z,0.10
2023-01-27T09:36:16.803Z,0.10
2023-01-27T09:38:52.301Z,0.10
2023-01-27T09:41:42.224Z,0.10
2023-01-27T09:44:26.557Z,0.10
2023-01-27T09:47:00.162Z,0.10
2023-01-27T09:49:37.102Z,-0.10
2023-01-27T09:52:03.600Z,-0.30
2023-01-27T09:54:53.244Z,-0.30
2023-01-27T09:57:35.187Z,-0.20
2023-01-27T10:00:07.206Z,0.00
2023-01-27T10:02:53.167Z,0.10
2023-01-27T10:05:29.434Z,0.00
2023-01-27T10:08:18.941Z,0.00
2023-01-27T10:11:01.724Z,0.10
2023-01-27T10:13:35.401Z,0.20
2023-01-27T10:16:14.666Z,0.40
2023-01-27T10:18:47.557Z,0.50
2023-01-27T10:21:20.120Z,0.60
2023-01-27T10:23:52.616Z,0.70
2023-01-27T10:26:19.088Z,0.60
2023-01-27T10:28:49.758Z,0.60
2023-01-27T10:31:26.916Z,0.70
2023-01-27T10:33:55.185Z,0.70
2023-01-27T10:36:29.966Z,0.70
2023-01-27T10:39:07.984Z,0.70
2023-01-27T10:41:46.058Z,0.80
2023-01-27T10:44:24.704Z,0.70
2023-01-27T10:47:07.204Z,0.70
2023-01-27T10:49:42.715Z,0.70
2023-01-27T10:52:11.351Z,0.60
2023-01-27T10:54:43.582Z,0.70
2023-01-27T10:57:15.272Z,0.70
2023-01-27T11:00:05.332Z,0.70
2023-01-27T11:02:57.044Z,0.70
2023-01-27T11:05:27.176Z,0.60
2023-01-27T11:07:58.675Z,0.60
2023-01-27T11:10:28.359Z,0.50
2023-01-27T11:12:55.959Z,0.50
2023-01-27T11:15:30.440Z,0.50
2023-01-27T11:18:13.273Z,0.50
2023-01-27T11:20:44.259Z,0.50
2023-01-27T11:23:15.178Z,0.50
2023-01-27T11:25:57.868Z,0.50
2023-01-27T11:28:42.897Z,0.60
2023-01-27T11:31:19.324Z,0.70
2023-01-27T11:33:49.022Z,0.70
2023-01-27T11:36:15.590Z,0.70
2023-01-27T11:38:42.122Z,0.70
2023-01-27T11:41:08.902Z,0.60
2023-01-27T11:43:37.324Z,0.60
2023-01-27T11:46:06.144Z,0.60
2023-01-27T11:48:40.973Z,0.70
2023-01-27T11:51:21.521Z,0.70
2023-01-27T11:54:11.169Z,0.80
2023-01-27T11:56:37.891Z,0.80
2023-01-27T11:59:22.950Z,0.80
2023-01-27T12:01:49.636Z,0.80
2023-01-27T12:04:35.022Z,0.80
2023-01-27T12:07:08.672Z,0.80
2023-01-27T12:09:36.638Z,0.80
2023-01-27T12:12:12.338Z,0.80
2023-01-27T12:14:38.909Z,0.80
2023-01-27T12:17:06.345Z,0.70
2023-01-27T12:19:35.469Z,0.70
2023-01-27T12:22:06.822Z,0.80
2023-01-27T12:24:35.055Z,0.90
2023-01-27T12:27:02.915Z,0.80
2023-01-27T12:29:44.717Z,1.00
2023-01-27T12:32:16.710Z,1.00
2023-01-27T12:34:45.842Z,1.10
2023-01-27T12:37:20.545Z,1.10
2023-01-27T12:39:50.354Z,1.20
2023-01-27T12:42:36.195Z,1.10
2023-01-27T12:45:21.288Z,1.00
2023-01-27T12:47:57.131Z,1.00
2023-01-27T12:50:25.558Z,1.10
2023-01-27T12:53:04.379Z,1.10
2023-01-27T12:55:32.529Z,1.00
2023-01-27T12:57:59.186Z,1.00
2023-01-27T13:00:26.079Z,1.20
2023-01-27T13:02:53.713Z,1.10
2023-01-27T13:05:20.272Z,0.90
2023-01-27T13:07:53.059Z,0.90
2023-01-27T13:10:21.330Z,0.80
2023-01-27T13:12:52.041Z,0.90
2023-01-27T13:15:20.536Z,0.80
2023-01-27T13:17:51.200Z,0.80
2023-01-27T13:20:20.324Z,0.90
2023-01-27T13:22:49.079Z,0.80
2023-01-27T13:25:20.937Z,0.80
2023-01-27T13:27:49.104Z,0.80
2023-01-27T13:30:34.077Z,0.90
2023-01-27T13:33:29.852Z,0.80
2023-01-27T13:39:11.910Z,0.70
2023-01-27T13:41:41.441Z,0.90
2023-01-27T13:44:19.856Z,1.10
2023-01-27T13:46:48.550Z,1.10
2023-01-27T13:49:17.497Z,1.10
2023-01-27T13:51:44.047Z,1.20
2023-01-27T13:54:12.709Z,1.20
2023-01-27T13:56:39.235Z,1.10
2023-01-27T13:59:08.883Z,1.10
2023-01-27T14:01:43.502Z,1.10
2023-01-27T14:04:27.101Z,1.00
2023-01-27T14:06:59.859Z,0.90
2023-01-27T14:09:40.698Z,0.90
2023-01-27T14:12:13.270Z,0.90
2023-01-27T14:14:57.796Z,0.90
2023-01-27T14:17:36.983Z,0.90
2023-01-27T14:20:27.233Z,0.90
2023-01-27T14:23:15.840Z,0.90
2023-01-27T14:26:01.530Z,0.80
2023-01-27T14:28:54.504Z,0.80
2023-01-27T14:31:24.141Z,0.80
2023-01-27T14:34:09.582Z,0.80
2023-01-27T14:36:49.433Z,0.80
2023-01-27T14:39:23.748Z,0.90
2023-01-27T14:41:50.285Z,0.90
2023-01-27T14:44:29.968Z,0.90
2023-01-27T14:47:27.627Z,0.90
2023-01-27T14:49:59.036Z,0.90
2023-01-27T14:52:42.002Z,0.90
2023-01-27T14:55:35.045Z,0.90
2023-01-27T14:58:26.841Z,0.80
2023-01-27T15:00:56.200Z,0.80
2023-01-27T15:03:25.727Z,0.80
2023-01-27T15:06:04.652Z,0.90
2023-01-27T15:08:34.263Z,0.80
2023-01-27T15:11:19.734Z,0.80
2023-01-27T15:14:05.142Z,0.80
2023-01-27T15:16:50.693Z,0.90
2023-01-27T15:19:35.672Z,0.80
2023-01-27T15:22:15.939Z,0.80
2023-01-27T15:24:48.298Z,0.80
2023-01-27T15:27:14.961Z,0.80
2023-01-27T15:29:43.959Z,0.90
2023-01-27T15:32:26.265Z,0.80
2023-01-27T15:34:55.456Z,0.90
2023-01-27T15:41:11.557Z,0.80
2023-01-27T15:43:39.809Z,0.80
2023-01-27T15:46:23.377Z,0.80
2023-01-27T15:48:50.008Z,0.80
2023-01-27T15:51:17.870Z,0.80
2023-01-27T15:53:47.843Z,0.90
2023-01-27T15:56:14.379Z,0.80
2023-01-27T15:58:41.968Z,0.80
2023-01-27T16:01:10.318Z,0.80
2023-01-27T16:03:44.834Z,0.70
2023-01-27T16:06:15.723Z,0.70
2023-01-27T16:08:50.629Z,0.70
2023-01-27T16:11:24.767Z,0.70
2023-01-27T16:13:51.607Z,0.80
2023-01-27T16:16:18.180Z,0.80
2023-01-27T16:18:47.948Z,0.80
2023-01-27T16:21:33.288Z,1.00
2023-01-27T16:24:03.362Z,1.00
2023-01-27T16:26:45.861Z,0.90
2023-01-27T16:29:12.333Z,0.90
2023-01-27T16:31:39.557Z,0.80
2023-01-27T16:34:14.883Z,0.80
2023-01-27T16:36:41.500Z,0.70
2023-01-27T16:39:24.948Z,0.70
2023-01-27T16:41:53.538Z,0.70
2023-01-27T16:44:22.316Z,0.70
2023-01-27T16:46:50.556Z,0.70
2023-01-27T16:49:22.459Z,0.70
2023-01-27T16:51:56.222Z,0.70
2023-01-27T16:54:24.605Z,0.80
2023-01-27T16:56:51.588Z,0.80
2023-01-27T16:59:21.223Z,0.80
2023-01-27T17:01:59.842Z,0.80
2023-01-27T17:04:27.726Z,0.80
2023-01-27T17:07:11.589Z,0.80
2023-01-27T17:09:42.641Z,0.80
2023-01-27T17:12:28.138Z,0.80
2023-01-27T17:14:55.151Z,0.80
2023-01-27T17:17:23.445Z,0.90
2023-01-27T17:19:51.901Z,0.90
2023-01-27T17:22:22.932Z,1.00
2023-01-27T17:24:50.875Z,0.90
2023-01-27T17:27:18.099Z,0.90
2023-01-27T17:29:45.848Z,0.90
2023-01-27T17:32:32.455Z,0.90
2023-01-27T17:35:00.158Z,0.90
2023-01-27T17:37:29.325Z,0.90
2023-01-27T17:39:57.373Z,0.80
2023-01-27T17:42:25.281Z,0.80
2023-01-27T17:44:51.895Z,0.90
2023-01-27T17:47:19.554Z,0.90
2023-01-27T17:49:47.279Z,0.90
2023-01-27T17:52:17.721Z,1.00
2023-01-27T17:54:46.725Z,1.00
2023-01-27T17:57:20.985Z,1.00
2023-01-27T18:00:07.105Z,1.00
2023-01-27T18:02:35.363Z,1.00
2023-01-27T18:05:04.306Z,1.00
2023-01-27T18:07:32.101Z,1.10
2023-01-27T18:09:58.683Z,1.10
2023-01-27T18:12:32.762Z,1.00
2023-01-27T18:14:59.460Z,1.10
2023-01-27T18:17:27.580Z,1.10
2023-01-27T18:19:55.499Z,1.10
2023-01-27T18:22:26.008Z,1.10
2023-01-27T18:24:52.653Z,1.10
2023-01-27T18:27:25.798Z,1.00
2023-01-27T18:30:06.520Z,1.00
2023-01-27T18:32:37.973Z,1.10
2023-01-27T18:35:18.403Z,1.30
2023-01-27T18:37:51.124Z,1.20
2023-01-27T18:42:57.262Z,1.10
2023-01-27T18:45:24.324Z,1.20
2023-01-27T18:47:50.881Z,1.10
2023-01-27T18:50:19.339Z,1.20
2023-01-27T18:52:46.760Z,1.20
2023-01-27T18:55:23.370Z,1.20
2023-01-27T18:57:59.819Z,1.30
2023-01-27T19:00:28.067Z,1.20
2023-01-27T19:02:56.391Z,1.20
2023-01-27T19:05:24.480Z,1.20
2023-01-27T19:07:51.082Z,1.20
2023-01-27T19:10:20.517Z,1.20
2023-01-27T19:12:47.252Z,1.10
2023-01-27T19:15:14.856Z,1.20
2023-01-27T19:17:42.347Z,1.10
2023-01-27T19:20:19.035Z,1.10
2023-01-27T19:22:46.124Z,1.10
2023-01-27T19:25:13.219Z,1.10
2023-01-27T19:27:41.374Z,1.00
2023-01-27T19:30:20.288Z,1.00
2023-01-27T19:32:46.798Z,1.00
2023-01-27T19:35:13.749Z,1.00
2023-01-27T19:37:40.848Z,1.10
2023-01-27T19:40:23.969Z,1.10
2023-01-27T19:42:50.741Z,1.00
2023-01-27T19:45:18.090Z,1.00
2023-01-27T19:47:46.938Z,1.00
2023-01-27T19:50:21.427Z,1.00
2023-01-27T19:52:48.159Z,1.00
2023-01-27T19:55:15.886Z,1.10
2023-01-27T19:57:43.257Z,1.00
2023-01-27T20:00:18.310Z,1.00
2023-01-27T20:02:44.850Z,0.90
2023-01-27T20:05:11.577Z,0.90
2023-01-27T20:07:38.738Z,0.90
2023-01-27T20:10:08.703Z,0.90
2023-01-27T20:12:35.221Z,0.90
2023-01-27T20:15:01.913Z,0.80
2023-01-27T20:17:28.459Z,0.90
2023-01-27T20:19:55.050Z,0.90
2023-01-27T20:22:21.581Z,0.90
2023-01-27T20:24:48.153Z,0.90
2023-01-27T20:27:14.650Z,1.00
2023-01-27T20:29:41.667Z,1.00
2023-01-27T20:32:09.569Z,1.00
2023-01-27T20:34:36.173Z,0.90
2023-01-27T20:37:02.685Z,1.00
2023-01-27T20:39:29.660Z,0.90
2023-01-27T20:41:56.162Z,1.00
2023-01-27T20:44:22.720Z,0.90
2023-01-27T20:46:49.433Z,0.90
2023-01-27T20:49:15.938Z,1.00
2023-01-27T20:51:42.479Z,1.00
2023-01-27T20:54:11.074Z,0.90
2023-01-27T20:56:37.579Z,0.90
2023-01-27T20:59:04.131Z,0.90
2023-01-27T21:01:32.676Z,0.90
2023-01-27T21:03:59.243Z,0.90
2023-01-27T21:06:25.785Z,0.90
2023-01-27T21:08:52.487Z,0.90
2023-01-27T21:11:20.536Z,0.90
2023-01-27T21:13:47.543Z,0.90
2023-01-27T21:16:14.373Z,1.00
2023-01-27T21:18:40.967Z,0.90
2023-01-27T21:21:07.482Z,0.90
2023-01-27T21:23:34.655Z,0.90
2023-01-27T21:26:04.911Z,0.90
2023-01-27T21:28:32.493Z,0.90
2023-01-27T21:31:04.326Z,1.00
2023-01-27T21:33:30.925Z,1.00
2023-01-27T21:35:57.472Z,0.90
2023-01-27T21:38:23.973Z,0.90
2023-01-27T21:40:52.303Z,1.00
2023-01-27T21:43:37.465Z,1.00
2023-01-27T21:46:04.048Z,1.00
2023-01-27T21:48:30.577Z,1.00
2023-01-27T21:50:57.126Z,1.00
2023-01-27T21:53:23.741Z,1.00
2023-01-27T21:55:50.411Z,1.00
2023-01-27T21:58:17.017Z,1.00
2023-01-27T22:00:43.701Z,1.00
2023-01-27T22:03:11.530Z,1.00
2023-01-27T22:05:39.155Z,1.00
2023-01-27T22:08:06.865Z,1.10
2023-01-27T22:10:33.458Z,1.10
2023-01-27T22:13:00.986Z,1.00
2023-01-27T22:15:30.646Z,1.00
2023-01-27T22:17:57.863Z,1.00
2023-01-27T22:20:24.434Z,0.90
2023-01-27T22:22:54.126Z,1.00
2023-01-27T22:25:21.158Z,1.00
2023-01-27T22:27:47.759Z,0.90
2023-01-27T22:30:16.129Z,0.90
2023-01-27T22:32:43.156Z,0.90
2023-01-27T22:35:09.761Z,0.90
2023-01-27T22:37:37.664Z,0.90
2023-01-27T22:40:06.315Z,0.90
2023-01-27T22:42:33.341Z,0.90
2023-01-27T22:44:59.921Z,0.90
2023-01-27T22:47:26.473Z,0.90
2023-01-27T22:49:52.988Z,1.00
2023-01-27T22:52:19.499Z,1.00
2023-01-27T22:54:46.062Z,0.90
2023-01-27T22:57:12.539Z,0.90
2023-01-27T22:59:39.237Z,0.90
2023-01-27T23:02:05.755Z,0.90
2023-01-27T23:04:32.288Z,0.90
2023-01-27T23:06:58.839Z,0.90
2023-01-27T23:09:25.357Z,0.90
2023-01-27T23:11:51.856Z,0.90
2023-01-27T23:14:18.626Z,0.90
2023-01-27T23:16:45.278Z,0.90
2023-01-27T23:19:11.889Z,0.90
2023-01-27T23:21:38.451Z,1.00
2023-01-27T23:24:07.513Z,1.00
2023-01-27T23:26:34.394Z,0.90
2023-01-27T23:29:00.922Z,0.90
2023-01-27T23:31:27.684Z,0.90
2023-01-27T23:33:54.277Z,0.90
2023-01-27T23:36:20.761Z,1.00
2023-01-27T23:38:47.483Z,1.00
2023-01-27T23:41:18.423Z,1.00
2023-01-27T23:43:49.909Z,1.00
2023-01-27T23:46:16.469Z,1.00
2023-01-27T23:48:42.972Z,1.00
2023-01-27T23:51:10.192Z,1.00
2023-01-27T23:53:36.701Z,1.00
2023-01-27T23:56:03.340Z,1.10
2023-01-27T23:58:29.884Z,1.00
